Time;durP1;ratioP1;P1;durP2;ratioP2;P2;SDS_P1;SDS_P2;PMS_P1;PMS_P2;Temp;Humidity;BMP_temperature;BMP_pressure;BME280_temperature;BME280_humidity;BME280_pressure;Samples;Min_cycle;Max_cycle;Signal;HPM_P1;HPM_P2
2022/10/30 00:01:37;;;;;;;19.00;3.33;;;16.60;99.90;;;;;;5097389;28;20048;-66
2022/10/30 00:04:04;;;;;;;17.67;3.40;;;16.50;99.90;;;;;;5096627;28;20044;-66
2022/10/30 00:06:31;;;;;;;17.05;3.53;;;16.50;99.90;;;;;;5097603;28;20052;-66
2022/10/30 00:08:57;;;;;;;15.93;3.50;;;16.50;99.90;;;;;;5096665;28;20040;-66
2022/10/30 00:11:24;;;;;;;16.83;2.88;;;16.50;99.90;;;;;;5096566;28;20614;-66
2022/10/30 00:13:51;;;;;;;13.95;3.30;;;16.40;99.90;;;;;;5097014;28;20053;-66
2022/10/30 00:16:18;;;;;;;15.88;3.38;;;16.50;99.90;;;;;;5097142;28;20044;-66
2022/10/30 00:18:44;;;;;;;16.95;3.80;;;16.50;99.90;;;;;;5099429;28;20076;-66
2022/10/30 00:21:12;;;;;;;18.55;3.85;;;16.40;99.90;;;;;;5117673;28;20067;-66
2022/10/30 00:23:47;;;;;;;16.58;4.05;;;16.40;99.90;;;;;;5099480;28;20043;-66
2022/10/30 00:26:14;;;;;;;20.40;4.18;;;16.40;99.90;;;;;;5117419;28;20134;-66
2022/10/30 00:28:41;;;;;;;17.08;3.97;;;16.30;99.90;;;;;;5115956;28;20369;-66
2022/10/30 00:31:07;;;;;;;15.85;3.63;;;16.30;99.90;;;;;;5115258;28;20115;-66
2022/10/30 00:33:34;;;;;;;20.70;4.13;;;16.30;99.90;;;;;;5116628;28;20032;-67
2022/10/30 00:36:01;;;;;;;23.98;4.07;;;16.30;99.90;;;;;;5117851;28;20055;-66
2022/10/30 00:38:28;;;;;;;20.83;3.45;;;16.30;99.90;;;;;;5117816;28;20035;-66
2022/10/30 00:40:54;;;;;;;16.45;3.88;;;16.40;99.90;;;;;;5100486;28;20066;-66
2022/10/30 00:43:28;;;;;;;27.33;5.10;;;16.40;99.90;;;;;;5137863;28;20020;-66
2022/10/30 00:45:55;;;;;;;28.02;3.97;;;16.40;99.90;;;;;;5103598;28;20095;-66
2022/10/30 00:48:22;;;;;;;10.27;3.67;;;16.40;99.90;;;;;;5120651;28;20028;-66
2022/10/30 00:50:48;;;;;;;19.98;3.55;;;16.40;99.90;;;;;;5120333;28;20079;-66
2022/10/30 00:53:16;;;;;;;23.42;4.15;;;16.40;99.90;;;;;;5120124;28;20024;-66
2022/10/30 00:55:48;;;;;;;15.23;3.47;;;16.40;99.90;;;;;;5120664;28;20035;-66
2022/10/30 00:58:16;;;;;;;13.82;2.70;;;16.40;99.90;;;;;;5121137;28;20088;-66
2022/10/30 01:00:45;;;;;;;22.63;3.88;;;16.40;99.90;;;;;;5086960;28;20070;-66
2022/10/30 01:03:12;;;;;;;18.33;3.40;;;16.40;99.90;;;;;;5103856;28;20028;-66
2022/10/30 01:05:38;;;;;;;12.75;3.50;;;16.40;99.90;;;;;;5137967;28;20075;-66
2022/10/30 01:08:05;;;;;;;16.60;3.60;;;16.40;99.90;;;;;;5120340;28;20042;-66
2022/10/30 01:10:34;;;;;;;12.57;3.90;;;16.40;99.90;;;;;;5088172;28;20023;-66
2022/10/30 01:13:01;;;;;;;11.02;3.13;;;16.40;99.90;;;;;;5120051;28;20036;-66
2022/10/30 01:15:30;;;;;;;19.40;4.05;;;16.40;99.90;;;;;;5103577;28;20066;-66
2022/10/30 01:18:07;;;;;;;15.45;3.75;;;16.30;99.90;;;;;;5087351;28;20067;-65
2022/10/30 01:20:52;;;;;;;13.25;2.75;;;16.30;99.90;;;;;;5120994;28;20086;-67
2022/10/30 01:23:34;;;;;;;12.23;3.13;;;16.20;99.90;;;;;;5137509;28;20077;-66
2022/10/30 01:26:25;;;;;;;17.98;3.13;;;16.20;99.90;;;;;;5121117;28;20035;-66
2022/10/30 01:29:16;;;;;;;14.20;3.25;;;16.10;99.90;;;;;;5120288;28;20039;-66
2022/10/30 01:31:52;;;;;;;16.10;3.42;;;16.20;99.90;;;;;;5106333;28;20091;-66
2022/10/30 01:34:37;;;;;;;23.17;4.00;;;16.20;99.90;;;;;;5137390;28;20111;-66
2022/10/30 01:37:12;;;;;;;11.35;3.10;;;16.20;99.90;;;;;;5104325;28;20055;-65
2022/10/30 01:39:39;;;;;;;14.90;4.25;;;16.20;99.90;;;;;;5103620;28;20028;-64
2022/10/30 01:42:30;;;;;;;13.27;2.42;;;16.20;99.90;;;;;;5137352;28;20024;-65
2022/10/30 01:44:57;;;;;;;17.45;3.88;;;16.20;99.90;;;;;;5122545;28;20091;-64
2022/10/30 01:47:33;;;;;;;25.55;3.65;;;16.20;99.90;;;;;;5137347;28;20036;-65
2022/10/30 01:50:05;;;;;;;11.80;2.13;;;16.20;99.90;;;;;;5103519;28;20043;-65
2022/10/30 01:52:56;;;;;;;14.00;2.88;;;16.20;99.90;;;;;;5136996;28;20087;-65
2022/10/30 01:55:36;;;;;;;13.90;3.22;;;16.20;99.90;;;;;;5105074;28;20066;-65
2022/10/30 01:58:17;;;;;;;10.57;3.03;;;16.20;99.90;;;;;;5107813;28;20035;-65
2022/10/30 02:00:45;;;;;;;11.55;2.63;;;16.20;99.90;;;;;;5123117;28;20044;-65
2022/10/30 02:03:11;;;;;;;11.25;2.50;;;16.20;99.90;;;;;;5106989;28;20059;-65
2022/10/30 02:05:47;;;;;;;12.82;2.88;;;16.20;99.90;;;;;;5123878;28;20038;-65
2022/10/30 02:08:13;;;;;;;13.38;1.75;;;16.20;99.90;;;;;;5124148;28;20027;-64
2022/10/30 02:10:41;;;;;;;13.75;2.72;;;16.30;99.90;;;;;;5141040;28;20457;-65
2022/10/30 02:13:08;;;;;;;16.67;3.08;;;16.20;99.90;;;;;;5106905;28;20038;-65
2022/10/30 02:15:34;;;;;;;22.75;2.95;;;16.20;99.90;;;;;;5123506;28;20043;-65
2022/10/30 02:18:01;;;;;;;14.15;2.55;;;16.20;99.90;;;;;;5106472;28;20032;-65
2022/10/30 02:20:28;;;;;;;14.05;2.35;;;16.20;99.90;;;;;;5123492;28;20044;-65
2022/10/30 02:22:55;;;;;;;10.93;2.15;;;16.20;99.90;;;;;;5090219;28;20039;-65
2022/10/30 02:25:25;;;;;;;14.02;2.03;;;16.20;99.90;;;;;;5107323;28;20087;-65
2022/10/30 02:27:52;;;;;;;19.95;2.33;;;16.20;99.90;;;;;;5106478;28;20058;-65
2022/10/30 02:30:19;;;;;;;12.02;2.50;;;16.20;99.90;;;;;;5140860;28;20095;-65
2022/10/30 02:32:45;;;;;;;15.43;2.45;;;16.20;99.90;;;;;;5140794;28;20103;-65
2022/10/30 02:35:12;;;;;;;11.20;2.30;;;16.20;99.90;;;;;;5140603;28;20047;-65
2022/10/30 02:37:39;;;;;;;14.48;2.17;;;16.20;99.90;;;;;;5122792;28;20059;-65
2022/10/30 02:40:09;;;;;;;15.20;2.50;;;16.10;99.90;;;;;;5140401;28;20038;-65
2022/10/30 02:42:36;;;;;;;9.68;2.70;;;16.10;99.90;;;;;;5122970;28;20095;-65
2022/10/30 02:45:03;;;;;;;12.57;2.05;;;16.10;99.90;;;;;;5101829;28;20070;-66
2022/10/30 02:47:29;;;;;;;17.77;3.08;;;16.10;99.90;;;;;;5085857;28;20035;-65
2022/10/30 02:49:56;;;;;;;11.40;2.30;;;16.00;99.90;;;;;;5119310;28;20063;-65
2022/10/30 02:52:23;;;;;;;10.88;2.00;;;16.00;99.90;;;;;;5119710;28;20040;-65
2022/10/30 02:54:50;;;;;;;11.60;2.00;;;16.00;99.90;;;;;;5119505;28;20060;-66
2022/10/30 02:57:16;;;;;;;16.48;3.35;;;15.90;99.90;;;;;;5119883;28;20055;-65
2022/10/30 02:59:43;;;;;;;20.33;3.33;;;15.90;99.90;;;;;;5120062;28;20104;-65
2022/10/30 03:02:10;;;;;;;16.90;2.17;;;15.90;99.90;;;;;;5123990;28;20119;-65
2022/10/30 03:04:37;;;;;;;14.63;2.25;;;15.90;99.90;;;;;;5122525;28;20140;-65
2022/10/30 03:07:03;;;;;;;16.90;1.80;;;15.80;99.90;;;;;;5122491;28;20046;-65
2022/10/30 03:09:30;;;;;;;18.50;2.55;;;15.80;99.90;;;;;;5139789;28;20048;-65
2022/10/30 03:11:57;;;;;;;13.73;3.78;;;15.80;99.90;;;;;;5140169;28;20069;-65
2022/10/30 03:14:24;;;;;;;11.68;2.28;;;15.80;99.90;;;;;;5139867;28;20055;-65
2022/10/30 03:16:51;;;;;;;12.70;3.03;;;15.70;99.90;;;;;;5146427;27;20490;-67
2022/10/30 03:19:19;;;;;;;15.20;2.60;;;15.70;99.90;;;;;;5142434;27;20058;-65
2022/10/30 03:21:45;;;;;;;10.13;1.73;;;15.60;99.90;;;;;;5126097;27;20050;-65
2022/10/30 03:24:13;;;;;;;7.70;2.15;;;15.60;99.90;;;;;;5160138;27;20038;-65
2022/10/30 03:26:39;;;;;;;12.18;1.90;;;15.60;99.90;;;;;;5142846;27;20090;-65
2022/10/30 03:29:06;;;;;;;15.52;2.85;;;15.60;99.90;;;;;;5160272;27;20095;-66
2022/10/30 03:31:33;;;;;;;15.40;2.13;;;15.50;99.90;;;;;;5142602;27;20050;-65
2022/10/30 03:34:00;;;;;;;15.00;2.45;;;15.40;99.90;;;;;;5142167;27;20106;-65
2022/10/30 03:36:27;;;;;;;21.00;3.53;;;15.50;99.90;;;;;;5160090;27;20031;-65
2022/10/30 03:38:54;;;;;;;15.05;2.58;;;15.50;99.90;;;;;;5160193;27;20065;-65
2022/10/30 03:41:20;;;;;;;10.77;1.77;;;15.40;99.90;;;;;;5142429;27;20051;-65
2022/10/30 03:43:47;;;;;;;17.15;2.55;;;15.40;99.90;;;;;;5142164;27;20078;-65
2022/10/30 03:46:14;;;;;;;15.43;2.15;;;15.30;99.90;;;;;;5159642;27;20083;-65
2022/10/30 03:48:40;;;;;;;13.32;2.28;;;15.30;99.90;;;;;;5159928;27;20027;-65
2022/10/30 03:51:07;;;;;;;16.00;3.85;;;15.30;99.90;;;;;;5141955;27;20037;-65
2022/10/30 03:53:34;;;;;;;10.27;2.22;;;15.30;99.90;;;;;;5159810;27;20059;-65
2022/10/30 03:56:02;;;;;;;14.70;2.63;;;15.30;99.90;;;;;;5159719;27;20035;-65
2022/10/30 03:58:28;;;;;;;11.32;2.53;;;15.30;99.90;;;;;;5142198;27;20046;-65
2022/10/30 04:01:03;;;;;;;10.52;2.42;;;15.20;99.90;;;;;;5159649;27;20073;-65
2022/10/30 04:03:29;;;;;;;8.63;1.98;;;15.20;99.90;;;;;;5153127;27;20058;-65
2022/10/30 04:05:56;;;;;;;13.82;2.10;;;15.10;99.90;;;;;;5106627;28;20082;-65
2022/10/30 04:08:23;;;;;;;16.00;2.72;;;15.10;99.90;;;;;;5118378;28;20039;-65
2022/10/30 04:10:50;;;;;;;17.95;3.13;;;15.10;99.90;;;;;;5084416;28;20100;-65
2022/10/30 04:13:19;;;;;;;10.05;2.47;;;15.10;99.90;;;;;;5118117;28;20032;-65
2022/10/30 04:15:47;;;;;;;17.10;2.58;;;15.00;99.90;;;;;;5101286;28;20060;-65
2022/10/30 04:18:23;;;;;;;17.27;2.40;;;15.00;99.90;;;;;;5117580;28;20031;-65
2022/10/30 04:20:50;;;;;;;15.90;2.70;;;15.00;99.90;;;;;;5100481;28;20047;-65
2022/10/30 04:23:17;;;;;;;9.05;2.45;;;15.00;99.90;;;;;;5117989;28;20044;-65
2022/10/30 04:25:44;;;;;;;10.38;2.08;;;14.90;99.90;;;;;;5117915;28;20032;-65
2022/10/30 04:28:11;;;;;;;9.93;1.67;;;15.00;99.90;;;;;;5117935;28;20048;-65
2022/10/30 04:30:38;;;;;;;13.00;2.90;;;15.00;99.90;;;;;;5117972;28;20079;-66
2022/10/30 04:33:07;;;;;;;17.30;2.45;;;15.00;99.90;;;;;;5117468;28;20051;-65
2022/10/30 04:35:35;;;;;;;10.02;1.90;;;15.00;99.90;;;;;;5100413;28;20059;-66
2022/10/30 04:38:04;;;;;;;15.75;2.97;;;15.00;99.90;;;;;;5084244;28;20092;-66
2022/10/30 04:40:32;;;;;;;19.15;2.20;;;15.00;99.90;;;;;;5100540;28;20071;-65
2022/10/30 04:42:59;;;;;;;10.00;2.22;;;15.00;99.90;;;;;;5100306;28;20024;-65
2022/10/30 04:45:26;;;;;;;7.47;2.03;;;15.00;99.90;;;;;;5117593;28;20130;-65
2022/10/30 04:48:00;;;;;;;20.83;2.75;;;15.00;99.90;;;;;;5117497;28;20058;-65
2022/10/30 04:50:27;;;;;;;12.52;2.60;;;15.10;99.90;;;;;;5117652;28;20044;-65
2022/10/30 04:53:04;;;;;;;15.93;2.30;;;15.10;99.90;;;;;;5117673;28;20028;-65
2022/10/30 04:55:31;;;;;;;13.45;3.33;;;15.10;99.90;;;;;;5117684;28;20092;-65
2022/10/30 04:57:58;;;;;;;11.85;1.88;;;15.20;99.90;;;;;;5099816;28;20068;-66
2022/10/30 05:00:26;;;;;;;13.30;2.88;;;15.20;99.90;;;;;;5100137;28;20031;-65
2022/10/30 05:02:53;;;;;;;15.23;3.42;;;15.20;99.90;;;;;;5083365;28;20028;-65
2022/10/30 05:05:20;;;;;;;19.40;2.95;;;15.20;99.90;;;;;;5117427;28;20067;-64
2022/10/30 05:07:47;;;;;;;13.05;2.83;;;15.20;99.90;;;;;;5100015;28;20051;-64
2022/10/30 05:10:14;;;;;;;14.77;2.70;;;15.20;99.90;;;;;;5117412;28;20100;-65
2022/10/30 05:12:42;;;;;;;16.02;2.90;;;15.20;99.90;;;;;;5117025;28;20099;-65
2022/10/30 05:15:09;;;;;;;20.05;2.38;;;15.20;99.90;;;;;;5120488;28;20882;-65
2022/10/30 05:17:36;;;;;;;14.52;2.33;;;15.30;99.90;;;;;;5137633;28;20066;-65
2022/10/30 05:20:04;;;;;;;15.93;2.53;;;15.30;99.90;;;;;;5119969;28;20062;-64
2022/10/30 05:22:31;;;;;;;22.27;2.88;;;15.20;99.90;;;;;;5103717;28;20055;-65
2022/10/30 05:24:58;;;;;;;17.63;4.65;;;15.20;99.90;;;;;;5120266;28;20084;-66
2022/10/30 05:27:24;;;;;;;20.80;2.80;;;15.20;99.90;;;;;;5120493;28;20095;-64
2022/10/30 05:29:51;;;;;;;21.10;2.53;;;15.30;99.90;;;;;;5138605;28;20038;-65
2022/10/30 05:32:18;;;;;;;14.02;2.50;;;15.30;99.90;;;;;;5124270;28;20034;-65
2022/10/30 05:34:45;;;;;;;17.63;2.83;;;15.30;99.90;;;;;;5141965;28;20054;-65
2022/10/30 05:37:11;;;;;;;14.07;2.67;;;15.30;99.90;;;;;;5124291;28;20055;-65
2022/10/30 05:39:38;;;;;;;16.80;2.33;;;15.30;99.90;;;;;;5141623;28;20037;-65
2022/10/30 05:42:05;;;;;;;19.23;3.13;;;15.30;99.90;;;;;;5107376;28;20054;-65
2022/10/30 05:44:38;;;;;;;19.10;2.58;;;15.30;99.90;;;;;;5141690;28;20062;-65
2022/10/30 05:47:24;;;;;;;16.40;2.28;;;15.30;99.90;;;;;;5141448;28;20065;-65
2022/10/30 05:49:51;;;;;;;18.30;3.53;;;15.30;99.90;;;;;;5123949;28;20030;-65
2022/10/30 05:52:18;;;;;;;29.33;6.07;;;15.40;99.90;;;;;;5141603;28;20138;-65
2022/10/30 05:54:45;;;;;;;14.02;3.03;;;15.40;99.90;;;;;;5124105;28;20032;-65
2022/10/30 05:57:11;;;;;;;17.52;3.22;;;15.30;99.90;;;;;;5124052;28;20147;-66
2022/10/30 05:59:38;;;;;;;19.52;2.83;;;15.30;99.90;;;;;;5141382;28;20040;-66
2022/10/30 06:02:05;;;;;;;16.38;2.83;;;15.40;99.90;;;;;;5141143;28;20103;-66
2022/10/30 06:04:32;;;;;;;26.85;3.30;;;15.40;99.90;;;;;;5140947;28;20085;-65
2022/10/30 06:06:58;;;;;;;17.58;2.70;;;15.40;99.90;;;;;;5141341;28;20063;-66
2022/10/30 06:09:25;;;;;;;18.83;1.95;;;15.40;99.90;;;;;;5141032;28;20067;-66
2022/10/30 06:11:52;;;;;;;21.95;3.08;;;15.40;99.90;;;;;;5141123;28;20100;-65
2022/10/30 06:14:19;;;;;;;10.48;2.30;;;15.40;99.90;;;;;;5140925;28;20070;-66
2022/10/30 06:16:46;;;;;;;11.50;2.47;;;15.40;99.90;;;;;;5123390;28;20087;-65
2022/10/30 06:19:13;;;;;;;21.25;3.20;;;15.50;99.90;;;;;;5123241;28;20058;-65
2022/10/30 06:21:44;;;;;;;14.68;2.20;;;15.50;99.90;;;;;;5140886;28;20036;-65
2022/10/30 06:24:11;;;;;;;17.55;4.10;;;15.50;99.90;;;;;;5123130;28;20068;-65
2022/10/30 06:26:38;;;;;;;10.35;1.95;;;15.50;99.90;;;;;;5123072;28;20087;-65
2022/10/30 06:29:05;;;;;;;16.23;2.80;;;15.50;99.90;;;;;;5123400;28;20062;-65
2022/10/30 06:31:32;;;;;;;13.75;2.40;;;15.50;99.90;;;;;;5123058;28;20087;-65
2022/10/30 06:33:58;;;;;;;20.17;2.67;;;15.60;99.90;;;;;;5140479;28;20039;-65
2022/10/30 06:36:25;;;;;;;21.48;2.95;;;15.60;99.90;;;;;;5140797;28;20091;-65
2022/10/30 06:38:52;;;;;;;16.70;2.95;;;15.60;99.90;;;;;;5122877;28;20032;-65
2022/10/30 06:41:19;;;;;;;16.20;2.25;;;15.60;99.90;;;;;;5122494;28;20036;-65
2022/10/30 06:43:50;;;;;;;16.50;2.63;;;15.60;99.90;;;;;;5140471;28;20038;-65
2022/10/30 06:46:16;;;;;;;18.77;3.10;;;15.60;99.90;;;;;;5140144;28;20067;-65
2022/10/30 06:48:43;;;;;;;15.65;2.67;;;15.60;99.90;;;;;;5122769;28;20040;-65
2022/10/30 06:51:11;;;;;;;17.15;2.65;;;15.60;99.90;;;;;;5139833;28;20046;-66
2022/10/30 06:53:38;;;;;;;15.10;3.17;;;15.60;99.90;;;;;;5105866;28;20051;-65
2022/10/30 06:56:05;;;;;;;17.42;2.30;;;15.50;99.90;;;;;;5139890;28;20079;-66
2022/10/30 06:58:37;;;;;;;14.88;3.13;;;15.50;99.90;;;;;;5140042;28;20028;-65
2022/10/30 07:01:05;;;;;;;16.05;2.88;;;15.50;99.90;;;;;;5123254;28;20059;-65
2022/10/30 07:03:32;;;;;;;13.23;2.40;;;15.50;99.90;;;;;;5122451;28;20053;-65
2022/10/30 07:05:59;;;;;;;19.30;3.30;;;15.50;99.90;;;;;;5140152;28;20039;-65
2022/10/30 07:08:26;;;;;;;17.85;3.25;;;15.50;99.90;;;;;;5139847;28;20044;-65
2022/10/30 07:10:55;;;;;;;14.13;2.45;;;15.40;99.90;;;;;;5121986;28;20040;-65
2022/10/30 07:13:22;;;;;;;19.60;2.97;;;15.30;99.90;;;;;;5121837;28;20047;-66
2022/10/30 07:15:49;;;;;;;15.57;2.95;;;15.30;99.90;;;;;;5121534;28;20052;-66
2022/10/30 07:18:16;;;;;;;14.30;2.97;;;15.30;99.90;;;;;;5122230;28;20035;-65
2022/10/30 07:20:42;;;;;;;19.13;2.78;;;15.10;99.90;;;;;;5139074;28;20035;-66
2022/10/30 07:23:09;;;;;;;14.63;2.35;;;15.10;99.90;;;;;;5139322;28;20040;-65
2022/10/30 07:25:36;;;;;;;20.92;2.47;;;15.10;99.90;;;;;;5105429;28;20042;-65
2022/10/30 07:28:03;;;;;;;13.70;2.45;;;15.10;99.90;;;;;;5139568;28;20032;-65
2022/10/30 07:30:30;;;;;;;16.92;2.55;;;15.00;99.90;;;;;;5122163;28;20042;-65
2022/10/30 07:33:01;;;;;;;13.70;2.42;;;15.00;99.90;;;;;;5139451;28;20044;-64
2022/10/30 07:35:29;;;;;;;17.08;2.25;;;14.90;99.90;;;;;;5105364;28;20035;-65
2022/10/30 07:38:04;;;;;;;17.25;2.53;;;15.00;99.90;;;;;;5139362;28;20030;-65
2022/10/30 07:40:31;;;;;;;17.98;4.03;;;14.90;99.90;;;;;;5121678;28;20044;-65
2022/10/30 07:42:59;;;;;;;22.88;2.30;;;14.90;99.90;;;;;;5104942;28;20055;-65
2022/10/30 07:45:27;;;;;;;21.63;3.40;;;14.80;99.90;;;;;;5122033;28;20024;-65
2022/10/30 07:47:53;;;;;;;13.27;2.42;;;14.90;99.90;;;;;;5138305;28;20055;-65
2022/10/30 07:50:21;;;;;;;11.40;2.40;;;14.90;99.90;;;;;;5121629;28;20030;-65
2022/10/30 07:52:48;;;;;;;16.58;2.78;;;14.90;99.90;;;;;;5137852;28;20059;-64
2022/10/30 07:55:14;;;;;;;16.90;2.22;;;14.90;99.90;;;;;;5121180;28;20043;-65
2022/10/30 07:57:41;;;;;;;16.67;3.58;;;14.90;99.90;;;;;;5120851;28;20027;-65
2022/10/30 08:00:10;;;;;;;15.23;2.53;;;14.90;99.90;;;;;;5138510;28;20047;-65
2022/10/30 08:02:37;;;;;;;13.95;2.50;;;14.90;99.90;;;;;;5138690;28;20043;-65
2022/10/30 08:05:05;;;;;;;16.67;2.55;;;14.90;99.90;;;;;;5138268;28;20031;-65
2022/10/30 08:07:32;;;;;;;16.52;2.80;;;14.90;99.90;;;;;;5103817;28;20034;-65
2022/10/30 08:09:59;;;;;;;20.88;3.25;;;14.90;99.90;;;;;;5103675;28;20111;-66
2022/10/30 08:12:26;;;;;;;17.63;2.30;;;14.90;99.90;;;;;;5103507;28;20031;-65
2022/10/30 08:14:53;;;;;;;11.55;2.25;;;14.90;99.90;;;;;;5114663;28;20035;-65
2022/10/30 08:17:20;;;;;;;7.10;1.83;;;14.90;99.90;;;;;;5095975;28;20107;-65
2022/10/30 08:19:47;;;;;;;17.38;2.38;;;14.90;99.90;;;;;;5125835;28;20051;-65
2022/10/30 08:22:13;;;;;;;12.20;2.03;;;14.90;99.90;;;;;;5107585;28;20051;-65
2022/10/30 08:24:40;;;;;;;11.20;3.17;;;14.90;99.90;;;;;;5092980;28;20063;-65
2022/10/30 08:27:08;;;;;;;21.38;2.55;;;14.90;99.90;;;;;;5106095;28;20059;-64
2022/10/30 08:29:35;;;;;;;19.55;3.08;;;14.90;99.90;;;;;;5107861;28;20028;-65
2022/10/30 08:32:01;;;;;;;12.05;3.92;;;14.90;99.90;;;;;;5123698;28;20043;-66
2022/10/30 08:34:31;;;;;;;13.00;2.08;;;14.90;99.90;;;;;;5125620;28;20035;-66
2022/10/30 08:36:58;;;;;;;11.35;1.98;;;14.90;99.90;;;;;;5109822;28;20143;-66
2022/10/30 08:39:25;;;;;;;15.45;2.20;;;14.90;99.90;;;;;;5102818;28;20069;-65
2022/10/30 08:41:55;;;;;;;18.33;2.63;;;14.90;99.90;;;;;;5103841;28;20032;-65
2022/10/30 08:44:22;;;;;;;14.25;1.98;;;14.90;99.90;;;;;;5126431;28;20086;-66
2022/10/30 08:46:49;;;;;;;13.05;2.95;;;14.90;99.90;;;;;;5086523;28;20144;-66
2022/10/30 08:49:15;;;;;;;14.25;3.58;;;14.90;99.90;;;;;;5124736;28;20103;-66
2022/10/30 08:51:43;;;;;;;14.80;2.42;;;14.80;99.90;;;;;;5107928;28;20036;-66
2022/10/30 08:54:09;;;;;;;11.07;1.67;;;14.80;99.90;;;;;;5123102;28;20070;-67
2022/10/30 08:56:36;;;;;;;22.10;2.22;;;14.80;99.90;;;;;;5106212;28;20044;-66
2022/10/30 08:59:03;;;;;;;19.27;3.28;;;14.80;99.90;;;;;;5123296;28;20059;-65
2022/10/30 09:01:30;;;;;;;11.52;1.85;;;14.70;99.90;;;;;;5123341;28;20055;-65
2022/10/30 09:03:57;;;;;;;13.95;2.13;;;14.70;99.90;;;;;;5125814;28;20066;-65
2022/10/30 09:06:23;;;;;;;13.85;2.00;;;14.70;99.90;;;;;;5124342;28;20091;-65
2022/10/30 09:08:50;;;;;;;17.05;3.00;;;14.70;99.90;;;;;;5110809;28;20047;-66
2022/10/30 09:11:17;;;;;;;15.80;1.73;;;14.70;99.90;;;;;;5102323;28;20104;-66
2022/10/30 09:13:44;;;;;;;11.75;2.10;;;14.60;99.90;;;;;;5105238;28;20056;-65
2022/10/30 09:16:11;;;;;;;23.52;3.45;;;14.60;99.90;;;;;;5124431;28;20039;-66
2022/10/30 09:18:37;;;;;;;17.08;1.98;;;14.60;99.90;;;;;;5125087;28;20064;-66
2022/10/30 09:21:04;;;;;;;14.52;2.75;;;14.60;99.90;;;;;;5123735;28;20070;-65
2022/10/30 09:23:31;;;;;;;12.93;4.28;;;14.70;99.90;;;;;;4751263;28;9999778;-65
2022/10/30 09:25:59;;;;;;;10.82;2.63;;;14.60;99.90;;;;;;5107591;28;20024;-66
2022/10/30 09:28:26;;;;;;;9.98;2.15;;;14.70;99.90;;;;;;5105350;28;20039;-66
2022/10/30 09:30:55;;;;;;;13.52;2.80;;;14.70;99.90;;;;;;5114631;28;20048;-66
2022/10/30 09:33:22;;;;;;;15.10;1.83;;;14.70;99.90;;;;;;5097185;28;20047;-64
2022/10/30 09:35:48;;;;;;;16.00;2.60;;;14.70;99.90;;;;;;5096828;28;20066;-66
2022/10/30 09:38:15;;;;;;;15.45;2.50;;;14.70;99.90;;;;;;5080014;28;20070;-65
2022/10/30 09:40:45;;;;;;;11.30;3.28;;;14.60;99.90;;;;;;5114587;28;20032;-65
2022/10/30 09:43:47;;;;;;;12.90;2.17;;;14.60;99.90;;;;;;5097133;28;20067;-66
2022/10/30 09:46:18;;;;;;;14.65;2.25;;;14.60;99.90;;;;;;5076595;28;20051;-65
2022/10/30 09:48:49;;;;;;;20.00;3.25;;;14.60;99.90;;;;;;5096432;28;20038;-65
2022/10/30 09:51:42;;;;;;;10.18;1.63;;;14.60;99.90;;;;;;5114279;28;20068;-66
2022/10/30 09:54:38;;;;;;;14.52;2.17;;;14.50;99.90;;;;;;5096678;28;20043;-66
2022/10/30 09:57:24;;;;;;;8.60;1.60;;;14.50;99.90;;;;;;5096841;28;20076;-66
2022/10/30 09:59:56;;;;;;;8.15;1.98;;;14.50;99.90;;;;;;5113816;28;20050;-66
2022/10/30 10:02:31;;;;;;;10.38;2.38;;;14.60;99.90;;;;;;5095832;28;20060;-66
2022/10/30 10:05:13;;;;;;;15.23;2.03;;;14.50;99.90;;;;;;5096173;28;20104;-66
2022/10/30 10:07:48;;;;;;;11.32;1.90;;;14.50;99.90;;;;;;5096208;28;20143;-66
2022/10/30 10:10:38;;;;;;;12.07;2.08;;;14.50;99.90;;;;;;5079400;28;20084;-65
2022/10/30 10:13:09;;;;;;;11.68;1.55;;;14.50;99.90;;;;;;5095467;28;20044;-66
2022/10/30 10:15:46;;;;;;;9.73;1.88;;;14.60;99.90;;;;;;5063370;28;20060;-67
2022/10/30 10:18:45;;;;;;;17.30;2.17;;;14.60;99.90;;;;;;5099391;28;20039;-67
2022/10/30 10:21:24;;;;;;;5.07;1.40;;;14.70;99.90;;;;;;5071824;28;20061;-64
2022/10/30 10:23:55;;;;;;;6.38;1.27;;;14.70;99.90;;;;;;5075565;28;20088;-65
2022/10/30 10:26:28;;;;;;;6.00;1.52;;;14.70;99.90;;;;;;5060094;28;20088;-65
2022/10/30 10:29:07;;;;;;;10.10;1.92;;;14.70;99.90;;;;;;5076873;28;20097;-65
2022/10/30 10:31:54;;;;;;;7.63;1.55;;;14.70;99.90;;;;;;5076786;28;20059;-66
2022/10/30 10:34:37;;;;;;;13.55;1.63;;;14.70;99.90;;;;;;5083296;28;20052;-66
2022/10/30 10:37:41;;;;;;;12.02;1.45;;;14.70;99.90;;;;;;5073836;28;20093;-66
2022/10/30 10:40:13;;;;;;;7.22;1.30;;;14.70;99.90;;;;;;5053388;28;20113;-67
2022/10/30 10:43:05;;;;;;;12.88;2.03;;;14.70;99.90;;;;;;5091341;28;20118;-66
2022/10/30 10:46:10;;;;;;;4.28;1.30;;;14.70;99.90;;;;;;5068732;28;20054;-66
2022/10/30 10:48:55;;;;;;;12.38;2.22;;;14.70;99.90;;;;;;5086941;28;20096;-66
2022/10/30 10:51:38;;;;;;;6.38;1.35;;;14.70;99.90;;;;;;5081563;28;20033;-65
2022/10/30 10:54:26;;;;;;;8.02;1.75;;;14.70;99.90;;;;;;5066948;28;20076;-66
2022/10/30 10:56:52;;;;;;;9.00;1.50;;;14.70;99.90;;;;;;5086975;28;20037;-66
2022/10/30 10:59:39;;;;;;;5.20;1.33;;;14.70;99.90;;;;;;5085943;28;20037;-65
2022/10/30 11:02:21;;;;;;;12.13;1.65;;;14.70;99.90;;;;;;5088428;28;20025;-65
2022/10/30 11:04:50;;;;;;;10.73;1.08;;;14.70;99.90;;;;;;5087172;28;20120;-65
2022/10/30 11:07:31;;;;;;;12.88;1.60;;;14.70;99.90;;;;;;5088720;28;20025;-65
2022/10/30 11:10:00;;;;;;;9.50;1.33;;;14.70;99.90;;;;;;5092925;28;20051;-65
2022/10/30 11:12:29;;;;;;;6.22;1.55;;;14.70;99.90;;;;;;5093330;28;20065;-65
2022/10/30 11:15:23;;;;;;;10.75;1.50;;;14.80;99.90;;;;;;5091108;28;20063;-65
2022/10/30 11:17:58;;;;;;;13.32;1.35;;;14.80;99.90;;;;;;5091067;28;20040;-65
2022/10/30 11:20:49;;;;;;;9.38;1.83;;;14.80;99.90;;;;;;5099667;28;20124;-66
2022/10/30 11:23:37;;;;;;;6.10;1.58;;;14.90;99.90;;;;;;5105428;28;20092;-65
2022/10/30 11:26:16;;;;;;;7.80;1.55;;;14.90;99.90;;;;;;5108098;28;20058;-65
2022/10/30 11:29:10;;;;;;;7.80;1.40;;;14.90;99.90;;;;;;5106694;28;20431;-65
2022/10/30 11:31:43;;;;;;;8.73;1.40;;;15.00;99.90;;;;;;5103198;28;20036;-66
2022/10/30 11:34:22;;;;;;;5.38;0.93;;;15.00;99.90;;;;;;5085296;28;20092;-65
2022/10/30 11:36:50;;;;;;;8.05;1.55;;;15.00;99.90;;;;;;5106359;28;20064;-65
2022/10/30 11:39:18;;;;;;;4.60;1.27;;;15.00;99.90;;;;;;5072372;28;20027;-65
2022/10/30 11:42:11;;;;;;;7.68;1.45;;;15.10;99.90;;;;;;5102275;28;20028;-66
2022/10/30 11:44:45;;;;;;;7.25;1.23;;;15.10;99.90;;;;;;5095584;28;20055;-66
2022/10/30 11:47:14;;;;;;;7.63;1.25;;;15.20;99.90;;;;;;5102707;28;20041;-66
2022/10/30 11:49:48;;;;;;;9.48;1.52;;;15.20;99.90;;;;;;5103252;28;20062;-66
2022/10/30 11:52:16;;;;;;;4.93;1.23;;;15.30;99.90;;;;;;5088872;28;20077;-65
2022/10/30 11:54:49;;;;;;;4.57;1.10;;;15.30;99.90;;;;;;5087084;28;20054;-66
2022/10/30 11:57:22;;;;;;;5.63;1.10;;;15.30;99.90;;;;;;5086751;28;20120;-66
2022/10/30 11:59:53;;;;;;;9.38;1.15;;;15.40;99.90;;;;;;5100096;28;20075;-65
2022/10/30 12:02:25;;;;;;;11.07;1.50;;;15.40;99.90;;;;;;5100360;28;20067;-65
2022/10/30 12:04:55;;;;;;;10.65;1.75;;;15.40;99.90;;;;;;5111561;28;20028;-66
2022/10/30 12:07:21;;;;;;;10.43;1.35;;;15.40;99.90;;;;;;5077626;28;20024;-66
2022/10/30 12:09:48;;;;;;;7.47;1.45;;;15.40;99.90;;;;;;5104459;28;20032;-66
2022/10/30 12:12:31;;;;;;;9.70;1.63;;;15.40;99.90;;;;;;5105115;28;20035;-65
2022/10/30 12:15:23;;;;;;;6.80;2.53;;;15.40;99.90;;;;;;5107748;28;20056;-66
2022/10/30 12:18:15;;;;;;;8.68;1.20;;;15.50;99.90;;;;;;5095186;28;20096;-66
2022/10/30 12:20:41;;;;;;;7.72;1.67;;;15.60;99.90;;;;;;5101275;28;20036;-65
2022/10/30 12:23:09;;;;;;;10.73;1.70;;;15.70;99.90;;;;;;5082815;28;20041;-66
2022/10/30 12:25:37;;;;;;;5.60;1.20;;;15.70;99.90;;;;;;5110881;28;20039;-64
2022/10/30 12:28:12;;;;;;;9.30;1.60;;;15.70;99.90;;;;;;5090939;28;20041;-65
2022/10/30 12:31:01;;;;;;;7.57;1.58;;;15.80;99.90;;;;;;5082587;28;20096;-65
2022/10/30 12:33:36;;;;;;;9.98;1.20;;;15.80;99.90;;;;;;5086312;28;20063;-65
2022/10/30 12:36:09;;;;;;;6.82;1.25;;;15.80;99.90;;;;;;5087764;28;20052;-67
2022/10/30 12:38:44;;;;;;;;;;;15.90;99.90;;;;;;5079518;28;20041;-66
2022/10/30 12:41:26;;;;;;;4.20;1.02;;;15.90;99.90;;;;;;5069447;28;19909;-65
2022/10/30 12:44:16;;;;;;;9.77;1.13;;;15.90;99.90;;;;;;5101356;28;20063;-65
2022/10/30 12:46:50;;;;;;;9.70;1.50;;;15.90;99.90;;;;;;5082708;28;20064;-66
2022/10/30 12:49:36;;;;;;;9.65;1.80;;;15.90;99.90;;;;;;5084854;28;20028;-66
2022/10/30 12:52:13;;;;;;;5.18;1.10;;;15.90;99.90;;;;;;5083818;28;20059;-65
2022/10/30 12:55:04;;;;;;;7.97;2.08;;;15.90;99.90;;;;;;5089354;28;20068;-66
2022/10/30 12:57:40;;;;;;;9.55;1.33;;;16.00;99.90;;;;;;5074621;28;20056;-66